Pensacola Regional Airport Pensacola US
ICAO: KPNS
IATA: PNS
Category: Medium
Scheduled Services: Yes

Elevation: 121 ft
TransAlt. 18000 ft.

Airport Communications:
APP/DEP:118.6
ATIS:121.25
CLNC DEL:123.725
CTAF:119.9
GND:121.9
GAINESVILLE RDO:122.2
TWR:119.9
UNICOM:122.95

KPNS Zoom In..

Runways:

(A) RW 08 length 7000 ft width 150 ft
LOC 110.95 / hdg 80

(B) RW 17 length 7004 ft width 150 ft
ILS 111.10 / hdg 169

(C) RW 26 length 7000 ft width 150 ft
LOC 110.95 / hdg 260

(D) RW 35 length 7004 ft width 150 ft
LOC 110.95 / hdg 349

Location; KPNS
Day. 22 / Time. 03.53 Zulu
* Altimeter: 30.12
* Temperature: 14° c. 57.2°f.
* Wind from: 100° Speed 05 kn.
Dewpoint: 11° c.
Visibility: 10 Statute Miles.
Clouds: Clear (automated report).

KPNS 220353Z 10005KT 10SM CLR 14/11 A3012 RMK AO2 SLP203 T01390106


Wind From 100°
Speed 05 kn.

jpsM music video
CHECK IT OUT

jpsM - It Moves..

 
jpsmedia.com for Web Design  worldairports.se 2018   terms of use